createdAt,value
2022-11-29T00:00:35.783Z,1.74
2022-11-29T00:06:08.906Z,1.74
2022-11-29T00:12:00.628Z,1.74
2022-11-29T00:17:31.792Z,1.74
2022-11-29T00:23:03.033Z,1.75
2022-11-29T00:28:35.609Z,1.74
2022-11-29T00:34:09.991Z,1.76
2022-11-29T00:39:41.487Z,1.74
2022-11-29T00:45:12.432Z,1.75
2022-11-29T00:50:43.200Z,1.76
2022-11-29T00:56:14.721Z,1.74
2022-11-29T01:01:46.062Z,1.74
2022-11-29T01:07:17.706Z,1.73
2022-11-29T01:12:49.036Z,1.71
2022-11-29T01:18:20.182Z,1.71
2022-11-29T01:23:52.728Z,1.73
2022-11-29T01:29:25.067Z,1.74
2022-11-29T01:34:56.248Z,1.72
2022-11-29T01:40:27.208Z,1.72
2022-11-29T01:45:58.682Z,1.71
2022-11-29T01:51:31.128Z,1.72
2022-11-29T01:57:03.783Z,1.71
2022-11-29T02:02:38.903Z,1.70
2022-11-29T02:08:11.708Z,1.70
2022-11-29T02:13:48.124Z,1.69
2022-11-29T02:19:39.277Z,1.71
2022-11-29T02:25:35.344Z,1.70
2022-11-29T02:31:27.867Z,1.67
2022-11-29T02:37:11.558Z,1.69
2022-11-29T02:43:01.803Z,1.70
2022-11-29T02:48:38.929Z,1.69
2022-11-29T02:54:24.759Z,1.68
2022-11-29T03:00:01.710Z,1.70
2022-11-29T03:05:45.086Z,1.67
2022-11-29T03:11:34.344Z,1.68
2022-11-29T03:17:26.694Z,1.68
2022-11-29T03:23:06.477Z,1.67
2022-11-29T03:28:49.633Z,1.65
2022-11-29T03:34:38.909Z,1.64
2022-11-29T03:40:18.680Z,1.66
2022-11-29T03:45:56.570Z,1.66
2022-11-29T03:51:52.880Z,1.64
2022-11-29T03:57:34.814Z,1.62
2022-11-29T04:03:32.795Z,1.64
2022-11-29T04:09:07.144Z,1.64
2022-11-29T04:15:02.797Z,1.63
2022-11-29T04:20:51.749Z,1.62
2022-11-29T04:26:56.599Z,1.64
2022-11-29T04:32:51.718Z,1.63
2022-11-29T04:38:48.059Z,1.61
2022-11-29T04:44:54.375Z,1.62
2022-11-29T04:50:27.593Z,1.62
2022-11-29T04:56:01.161Z,1.60
2022-11-29T05:01:47.545Z,1.60
2022-11-29T05:07:18.867Z,1.60
2022-11-29T05:13:31.400Z,1.60
2022-11-29T05:19:40.032Z,1.59
2022-11-29T05:25:20.435Z,1.59
2022-11-29T05:30:55.315Z,1.58
2022-11-29T05:36:39.515Z,1.58
2022-11-29T05:42:42.654Z,1.57
2022-11-29T05:48:13.675Z,1.56
2022-11-29T05:54:12.041Z,1.54
2022-11-29T05:59:44.240Z,1.52
2022-11-29T06:05:26.240Z,1.53
2022-11-29T06:11:11.585Z,1.52
2022-11-29T06:16:57.043Z,1.52
2022-11-29T06:23:02.862Z,1.53
2022-11-29T06:28:52.298Z,1.52
2022-11-29T06:34:31.947Z,1.50
2022-11-29T06:40:03.603Z,1.50
2022-11-29T06:45:34.783Z,1.50
2022-11-29T06:51:23.945Z,1.51
2022-11-29T06:57:24.884Z,1.50
2022-11-29T07:03:01.833Z,1.47
2022-11-29T07:08:33.141Z,1.49
2022-11-29T07:14:04.649Z,1.48
2022-11-29T07:19:46.256Z,1.49
2022-11-29T07:25:22.289Z,1.53
2022-11-29T07:31:44.408Z,1.55
2022-11-29T07:37:48.029Z,1.55
2022-11-29T07:43:37.819Z,1.58
2022-11-29T07:49:12.118Z,1.61
2022-11-29T07:54:44.297Z,1.63
2022-11-29T08:00:16.328Z,1.64
2022-11-29T08:05:47.874Z,1.64
2022-11-29T08:11:18.728Z,1.67
2022-11-29T08:16:49.883Z,1.64
2022-11-29T08:22:21.736Z,1.65
2022-11-29T08:27:54.768Z,1.67
2022-11-29T08:33:26.023Z,1.67
2022-11-29T08:39:03.508Z,1.72
2022-11-29T08:44:37.366Z,1.71
2022-11-29T08:50:15.053Z,1.69
2022-11-29T08:55:46.848Z,1.71
2022-11-29T09:01:19.326Z,1.72
2022-11-29T09:06:50.602Z,1.73
2022-11-29T09:12:21.720Z,1.78
2022-11-29T09:17:52.877Z,1.76
2022-11-29T09:23:24.062Z,1.78
2022-11-29T09:29:01.455Z,1.77
2022-11-29T09:34:33.008Z,1.79
2022-11-29T09:40:05.144Z,1.82
2022-11-29T09:45:42.815Z,1.82
2022-11-29T09:51:24.484Z,1.80
2022-11-29T09:56:55.974Z,1.80
2022-11-29T10:02:34.719Z,1.81
2022-11-29T10:08:16.129Z,1.81
2022-11-29T10:13:52.598Z,1.81
2022-11-29T10:19:41.516Z,1.81
2022-11-29T10:25:21.441Z,1.82
2022-11-29T10:30:57.310Z,1.85
2022-11-29T10:36:37.179Z,1.86
2022-11-29T10:42:47.432Z,1.87
2022-11-29T10:48:21.001Z,1.90
2022-11-29T10:53:52.749Z,1.92
2022-11-29T10:59:26.548Z,1.91
2022-11-29T11:04:59.393Z,1.92
2022-11-29T11:10:31.070Z,1.95
2022-11-29T11:16:11.831Z,1.96
2022-11-29T11:21:42.688Z,1.97
2022-11-29T11:27:13.850Z,1.99
2022-11-29T11:33:06.918Z,2.00
2022-11-29T11:38:58.075Z,2.00
2022-11-29T11:44:48.885Z,2.01
2022-11-29T11:50:35.174Z,2.02
2022-11-29T11:56:08.833Z,2.02
2022-11-29T12:01:40.052Z,2.04
2022-11-29T12:07:38.700Z,2.05
2022-11-29T12:13:26.889Z,2.04
2022-11-29T12:19:05.422Z,2.04
2022-11-29T12:24:40.039Z,2.04
2022-11-29T12:30:14.174Z,2.05
2022-11-29T12:35:52.749Z,2.06
2022-11-29T12:41:41.679Z,2.07
2022-11-29T12:47:46.299Z,2.06
2022-11-29T12:53:34.477Z,2.06
2022-11-29T12:59:15.570Z,2.07
2022-11-29T13:05:04.178Z,2.07
2022-11-29T13:10:53.594Z,2.06
2022-11-29T13:16:32.730Z,2.06
2022-11-29T13:22:21.841Z,2.07
2022-11-29T13:28:02.750Z,2.06
2022-11-29T13:33:55.655Z,2.09
2022-11-29T13:40:06.246Z,2.07
2022-11-29T13:46:08.814Z,2.06
2022-11-29T13:51:41.760Z,2.07
2022-11-29T13:57:13.274Z,2.06
2022-11-29T14:02:45.154Z,2.06
2022-11-29T14:08:42.478Z,2.06
2022-11-29T14:14:21.563Z,2.06
2022-11-29T14:19:52.965Z,2.05
2022-11-29T14:25:50.578Z,2.05
2022-11-29T14:31:49.899Z,2.06
2022-11-29T14:37:51.036Z,2.04
2022-11-29T14:43:34.631Z,2.02
2022-11-29T14:49:06.067Z,2.00
2022-11-29T14:54:54.677Z,2.01
2022-11-29T15:00:28.946Z,1.99
2022-11-29T15:06:12.016Z,1.98
2022-11-29T15:11:52.794Z,1.98
2022-11-29T15:17:37.632Z,1.98
2022-11-29T15:23:15.216Z,1.97
2022-11-29T15:28:46.383Z,1.96
2022-11-29T15:34:43.565Z,1.97
2022-11-29T15:40:24.199Z,1.94
2022-11-29T15:45:57.067Z,1.94
2022-11-29T15:51:31.915Z,1.93
2022-11-29T15:57:13.440Z,1.93
2022-11-29T16:03:04.646Z,1.94
2022-11-29T16:08:42.179Z,1.92
2022-11-29T16:14:27.000Z,1.91
2022-11-29T16:20:19.546Z,1.90
2022-11-29T16:26:04.241Z,1.91
2022-11-29T16:31:36.162Z,1.90
2022-11-29T16:37:08.355Z,1.91
2022-11-29T16:42:40.911Z,1.92
2022-11-29T16:48:25.696Z,1.89
2022-11-29T16:53:56.767Z,1.88
2022-11-29T16:59:28.383Z,1.88
2022-11-29T17:04:59.819Z,1.86
2022-11-29T17:10:32.457Z,1.87
2022-11-29T17:16:03.697Z,1.88
2022-11-29T17:21:35.314Z,1.85
2022-11-29T17:27:06.835Z,1.85
2022-11-29T17:32:38.414Z,1.85
2022-11-29T17:38:09.567Z,1.82
2022-11-29T17:43:40.903Z,1.84
2022-11-29T17:49:12.550Z,1.83
2022-11-29T17:54:43.562Z,1.84
2022-11-29T18:00:16.469Z,1.87
2022-11-29T18:05:47.811Z,1.87
2022-11-29T18:11:24.906Z,1.84
2022-11-29T18:16:56.626Z,1.84
2022-11-29T18:22:27.887Z,1.84
2022-11-29T18:27:58.908Z,1.83
2022-11-29T18:33:30.310Z,1.82
2022-11-29T18:39:10.519Z,1.83
2022-11-29T18:44:41.709Z,1.85
2022-11-29T18:50:13.209Z,1.85
2022-11-29T18:55:44.339Z,1.85
2022-11-29T19:01:17.635Z,1.84
2022-11-29T19:06:49.327Z,1.86
2022-11-29T19:12:20.699Z,1.84
2022-11-29T19:17:53.142Z,1.84
2022-11-29T19:23:24.483Z,1.86
2022-11-29T19:28:55.491Z,1.86
2022-11-29T19:34:26.639Z,1.85
2022-11-29T19:39:58.154Z,1.89
2022-11-29T19:45:29.541Z,1.86
2022-11-29T19:51:00.971Z,1.85
2022-11-29T19:56:32.895Z,1.85
2022-11-29T20:02:04.216Z,1.83
2022-11-29T20:07:35.707Z,1.85
2022-11-29T20:13:08.131Z,1.87
2022-11-29T20:18:44.617Z,1.88
2022-11-29T20:24:20.193Z,1.88
2022-11-29T20:29:51.035Z,1.86
2022-11-29T20:35:22.713Z,1.84
2022-11-29T20:41:03.121Z,1.85
2022-11-29T20:46:35.021Z,1.85
2022-11-29T20:52:07.666Z,1.83
2022-11-29T20:57:38.911Z,1.82
2022-11-29T21:03:14.342Z,1.82
2022-11-29T21:08:45.557Z,1.83
2022-11-29T21:14:17.267Z,1.78
2022-11-29T21:19:48.927Z,1.78
2022-11-29T21:25:45.960Z,1.72
2022-11-29T21:31:18.461Z,1.69
2022-11-29T21:36:56.945Z,1.67
2022-11-29T21:42:28.097Z,1.63
2022-11-29T21:48:01.916Z,1.63
2022-11-29T21:53:37.444Z,1.59
2022-11-29T21:59:08.823Z,1.57
2022-11-29T22:04:40.069Z,1.56
2022-11-29T22:10:13.492Z,1.57
2022-11-29T22:15:45.267Z,1.57
2022-11-29T22:21:16.614Z,1.56
2022-11-29T22:26:49.055Z,1.54
2022-11-29T22:32:20.039Z,1.54
2022-11-29T22:37:51.241Z,1.52
2022-11-29T22:43:22.294Z,1.50
2022-11-29T22:48:55.804Z,1.50
2022-11-29T22:54:27.112Z,1.49
2022-11-29T22:59:58.305Z,1.49
2022-11-29T23:05:32.272Z,1.46
2022-11-29T23:11:05.125Z,1.50
2022-11-29T23:16:36.441Z,1.48
2022-11-29T23:22:07.807Z,1.45
2022-11-29T23:27:38.812Z,1.45
2022-11-29T23:33:10.226Z,1.45
2022-11-29T23:38:41.579Z,1.45
2022-11-29T23:44:12.815Z,1.47
2022-11-29T23:49:43.818Z,1.44
2022-11-29T23:55:15.174Z,1.43
